Strona główna
METAR-TAF:

METAR-TAF

Lotnisko :

Port lotniczy Lublin

Lublin, Polska

Szerokość geograficzna: 51-13-55N, Długość geograficzna: 22-41-25E, wysokość: 203 m

Aktualna obserwacja pogody

Raport powstał 20 minut temu, godzina 02:00 UTC
Wiatr 2 kt od północny wschód
Temperatura 12°C
Wilgotność 94%
Ciśnienie 1028 hPa
Widzialność 10 km lub więcej
Brak chmur poniżej 1500 m i brak chmur cumulonimbus

METAR: EPLB 230200Z 05002KT CAVOK 12/11 Q1028

czas: 04:20 (02:20 UTC)

Prognoza

Raport powstał 2 godziny i 50 minut temu, godzina 23:30 UTC
Prognoza ważna od 23 godzina 00 UTC do 23 godzina 09 UTC
Wiatr 5 kt od wschodnio-północny wschód
Widzialność 10 km lub więcej
Brak chmur poniżej 1500 m i brak chmur cumulonimbus

TAF: EPLB 222330Z 2300/2309 07005KT CAVOK

Obserwacja i prognoza pogody dla ponad 4000 lotnisk (raport METAR i TAF).

Dostępne stacje oznaczono żółtymi i czerwonymi punktami na mapie.

Najedź kursorem aby zobaczyć nazwę stacji.

Kliknij aby zobaczyć obserwacje i prognozy pogody.

Aby zmienić mapę: kliknij na zielony przycisk z czarnym krzyżykiem, aby powiększyć; na zielony przycisk z myślnikiem, aby pomniejszyć; na zielone strzałki, aby przejść do map sąsiednich.


METAR-TAF: